createdAt,value
2022-08-03T00:00:51.901Z,69.09
2022-08-03T00:01:51.888Z,69.49
2022-08-03T00:02:51.922Z,69.59
2022-08-03T00:03:51.839Z,69.69
2022-08-03T00:04:51.817Z,70.03
2022-08-03T00:06:03.892Z,70.03
2022-08-03T00:06:52.809Z,70.12
2022-08-03T00:07:51.808Z,70.32
2022-08-03T00:08:51.811Z,70.43
2022-08-03T00:09:51.783Z,70.83
2022-08-03T00:10:52.720Z,71.13
2022-08-03T00:11:51.720Z,70.76
2022-08-03T00:12:51.739Z,71.06
2022-08-03T00:13:51.787Z,71.16
2022-08-03T00:14:51.792Z,71.26
2022-08-03T00:15:51.659Z,71.16
2022-08-03T00:16:51.644Z,71.56
2022-08-03T00:17:52.012Z,71.56
2022-08-03T00:18:51.633Z,71.60
2022-08-03T00:19:51.685Z,71.60
2022-08-03T00:20:51.621Z,71.90
2022-08-03T00:21:51.569Z,71.80
2022-08-03T00:22:51.700Z,72.10
2022-08-03T00:23:52.953Z,72.10
2022-08-03T00:24:51.553Z,72.00
2022-08-03T00:25:51.592Z,72.10
2022-08-03T00:26:51.522Z,72.44
2022-08-03T00:27:51.501Z,72.53
2022-08-03T00:28:51.568Z,72.33
2022-08-03T00:29:59.622Z,72.74
2022-08-03T00:30:52.498Z,72.44
2022-08-03T00:31:52.738Z,72.44
2022-08-03T00:32:52.470Z,72.64
2022-08-03T00:33:59.322Z,72.74
2022-08-03T00:34:57.519Z,72.74
2022-08-03T00:35:53.426Z,72.74
2022-08-03T00:36:51.578Z,72.74
2022-08-03T00:37:51.410Z,72.74
2022-08-03T00:38:51.390Z,72.84
2022-08-03T00:39:51.393Z,72.94
2022-08-03T00:40:51.380Z,72.94
2022-08-03T00:41:51.306Z,72.84
2022-08-03T00:42:51.319Z,72.84
2022-08-03T00:43:51.298Z,72.97
2022-08-03T00:44:51.291Z,73.18
2022-08-03T00:45:51.256Z,73.27
2022-08-03T00:46:51.279Z,73.38
2022-08-03T00:47:51.231Z,73.27
2022-08-03T00:48:51.414Z,73.38
2022-08-03T00:49:51.240Z,73.68
2022-08-03T00:50:51.255Z,73.47
2022-08-03T00:51:51.201Z,73.98
2022-08-03T00:52:51.222Z,74.08
2022-08-03T00:53:51.193Z,73.88
2022-08-03T00:54:51.226Z,73.98
2022-08-03T00:55:51.154Z,74.01
2022-08-03T00:56:59.979Z,74.21
2022-08-03T00:57:52.117Z,74.52
2022-08-03T00:58:51.105Z,74.62
2022-08-03T00:59:51.105Z,74.72
2022-08-03T01:00:51.159Z,74.72
2022-08-03T01:01:51.211Z,74.82
2022-08-03T01:02:51.064Z,75.02
2022-08-03T01:03:51.023Z,75.26
2022-08-03T01:04:51.039Z,74.85
2022-08-03T01:05:51.007Z,75.15
2022-08-03T01:06:51.089Z,74.85
2022-08-03T01:07:50.964Z,75.46
2022-08-03T01:08:51.061Z,75.86
2022-08-03T01:09:51.078Z,75.66
2022-08-03T01:10:50.929Z,76.46
2022-08-03T01:12:01.219Z,76.06
2022-08-03T01:12:51.904Z,75.76
2022-08-03T01:14:03.589Z,75.56
2022-08-03T01:14:52.448Z,76.26
2022-08-03T01:15:51.037Z,76.46
2022-08-03T01:16:50.961Z,76.46
2022-08-03T01:17:50.862Z,76.46
2022-08-03T01:18:50.871Z,76.36
2022-08-03T01:19:50.830Z,76.70
2022-08-03T01:20:50.792Z,76.90
2022-08-03T01:21:50.805Z,76.90
2022-08-03T01:22:50.793Z,76.90
2022-08-03T01:23:50.758Z,77.31
2022-08-03T01:24:50.813Z,77.20
2022-08-03T01:25:54.471Z,77.50
2022-08-03T01:26:50.743Z,77.55
2022-08-03T01:27:50.766Z,77.75
2022-08-03T01:28:50.723Z,77.84
2022-08-03T01:29:50.700Z,78.05
2022-08-03T01:30:50.755Z,77.84
2022-08-03T01:32:53.470Z,77.44
2022-08-03T01:33:00.341Z,77.64
2022-08-03T01:33:51.635Z,77.55
2022-08-03T01:34:50.609Z,77.68
2022-08-03T01:35:50.607Z,77.78
2022-08-03T01:36:50.707Z,78.39
2022-08-03T01:37:50.644Z,78.19
2022-08-03T01:38:50.583Z,78.39
2022-08-03T01:39:50.561Z,78.39
2022-08-03T01:40:50.569Z,78.59
2022-08-03T01:41:50.521Z,78.72
2022-08-03T01:42:50.501Z,78.72
2022-08-03T01:44:26.791Z,78.63
2022-08-03T01:44:51.478Z,78.72
2022-08-03T01:45:50.480Z,79.03
2022-08-03T01:46:50.549Z,78.63
2022-08-03T01:47:50.433Z,78.63
2022-08-03T01:48:50.480Z,78.52
2022-08-03T01:49:50.403Z,78.63
2022-08-03T01:50:50.398Z,78.63
2022-08-03T01:51:58.488Z,79.03
2022-08-03T01:52:51.411Z,79.23
2022-08-03T01:53:50.399Z,79.23
2022-08-03T01:54:50.380Z,79.27
2022-08-03T01:55:50.394Z,79.16
2022-08-03T01:56:50.345Z,79.16
2022-08-03T01:58:05.201Z,79.06
2022-08-03T01:58:51.363Z,79.06
2022-08-03T01:59:50.294Z,79.06
2022-08-03T02:00:50.339Z,79.16
2022-08-03T02:02:29.184Z,78.86
2022-08-03T02:02:51.364Z,78.96
2022-08-03T02:04:00.871Z,78.96
2022-08-03T02:04:51.266Z,78.96
2022-08-03T02:06:01.224Z,79.27
2022-08-03T02:07:00.139Z,79.77
2022-08-03T02:07:51.168Z,79.57
2022-08-03T02:08:50.195Z,79.36
2022-08-03T02:09:50.203Z,79.36
2022-08-03T02:10:50.125Z,79.47
2022-08-03T02:11:50.109Z,79.50
2022-08-03T02:12:51.240Z,79.41
2022-08-03T02:13:50.118Z,79.41
2022-08-03T02:14:50.138Z,79.30
2022-08-03T02:15:50.070Z,79.30
2022-08-03T02:16:50.078Z,79.61
2022-08-03T02:17:51.188Z,79.50
2022-08-03T02:18:50.150Z,79.50
2022-08-03T02:19:50.031Z,79.71
2022-08-03T02:20:50.030Z,79.71
2022-08-03T02:21:57.233Z,79.71
2022-08-03T02:22:50.987Z,79.91
2022-08-03T02:23:49.999Z,79.71
2022-08-03T02:24:51.173Z,79.91
2022-08-03T02:25:49.970Z,79.91
2022-08-03T02:26:50.010Z,79.85
2022-08-03T02:27:49.905Z,80.01
2022-08-03T02:28:49.888Z,80.05
2022-08-03T02:29:49.874Z,80.05
2022-08-03T02:30:53.809Z,79.85
2022-08-03T02:31:49.874Z,80.25
2022-08-03T02:32:49.913Z,79.94
2022-08-03T02:33:49.867Z,80.15
2022-08-03T02:34:49.894Z,80.05
2022-08-03T02:35:49.810Z,80.05
2022-08-03T02:36:49.852Z,80.15
2022-08-03T02:37:50.935Z,80.25
2022-08-03T02:38:49.784Z,80.55
2022-08-03T02:39:49.829Z,80.45
2022-08-03T02:40:49.797Z,80.35
2022-08-03T02:41:49.757Z,80.25
2022-08-03T02:42:49.703Z,80.55
2022-08-03T02:44:06.696Z,80.45
2022-08-03T02:44:50.689Z,80.55
2022-08-03T02:45:49.687Z,80.69
2022-08-03T02:46:49.744Z,80.69
2022-08-03T02:47:54.175Z,80.69
2022-08-03T02:48:50.692Z,80.69
2022-08-03T02:49:52.157Z,80.69
2022-08-03T02:50:49.663Z,80.79
2022-08-03T02:51:49.589Z,80.90
2022-08-03T02:52:49.672Z,80.90
2022-08-03T02:53:49.719Z,80.99
2022-08-03T02:54:49.560Z,81.10
2022-08-03T02:55:51.563Z,81.10
2022-08-03T02:56:49.631Z,81.20
2022-08-03T02:57:49.644Z,81.10
2022-08-03T02:58:49.551Z,81.10
2022-08-03T02:59:49.525Z,81.10
2022-08-03T03:00:49.656Z,81.10
2022-08-03T03:01:49.512Z,81.20
2022-08-03T03:02:49.464Z,81.20
2022-08-03T03:03:49.512Z,81.10
2022-08-03T03:05:50.592Z,81.10
2022-08-03T03:05:52.728Z,80.90
2022-08-03T03:06:50.425Z,80.99
2022-08-03T03:07:51.749Z,81.10
2022-08-03T03:08:49.957Z,81.20
2022-08-03T03:09:49.374Z,81.10
2022-08-03T03:10:53.184Z,81.20
2022-08-03T03:11:50.337Z,81.10
2022-08-03T03:12:49.375Z,81.20
2022-08-03T03:13:49.308Z,81.30
2022-08-03T03:14:49.422Z,81.10
2022-08-03T03:15:49.273Z,80.99
2022-08-03T03:16:51.785Z,81.10
2022-08-03T03:17:50.300Z,81.10
2022-08-03T03:18:49.358Z,80.99
2022-08-03T03:19:49.238Z,81.10
2022-08-03T03:20:49.205Z,81.03
2022-08-03T03:21:50.280Z,81.10
2022-08-03T03:22:49.378Z,81.13
2022-08-03T03:23:49.192Z,81.10
2022-08-03T03:24:49.190Z,80.90
2022-08-03T03:25:49.156Z,80.93
2022-08-03T03:26:49.157Z,80.90
2022-08-03T03:27:50.833Z,80.79
2022-08-03T03:28:49.107Z,80.79
2022-08-03T03:29:49.091Z,80.83
2022-08-03T03:30:53.070Z,80.69
2022-08-03T03:31:49.193Z,80.73
2022-08-03T03:32:49.150Z,80.63
2022-08-03T03:33:49.165Z,80.73
2022-08-03T03:34:49.058Z,80.83
2022-08-03T03:35:49.029Z,80.73
2022-08-03T03:36:49.010Z,80.73
2022-08-03T03:37:48.992Z,80.83
2022-08-03T03:38:48.995Z,80.83
2022-08-03T03:39:49.087Z,80.73
2022-08-03T03:40:48.953Z,80.73
2022-08-03T03:41:48.975Z,80.63
2022-08-03T03:42:48.922Z,80.83
2022-08-03T03:43:48.967Z,80.93
2022-08-03T03:44:49.010Z,80.83
2022-08-03T03:45:48.925Z,80.73
2022-08-03T03:46:48.906Z,80.73
2022-08-03T03:47:48.867Z,80.83
2022-08-03T03:48:48.861Z,80.83
2022-08-03T03:49:48.919Z,80.83
2022-08-03T03:50:48.905Z,80.93
2022-08-03T03:51:48.827Z,80.93
2022-08-03T03:52:48.791Z,80.93
2022-08-03T03:53:48.775Z,81.03
2022-08-03T03:54:48.776Z,81.13
2022-08-03T03:55:59.714Z,81.13
2022-08-03T03:56:49.762Z,81.13
2022-08-03T03:57:48.720Z,81.03
2022-08-03T03:58:48.731Z,81.03
2022-08-03T03:59:49.715Z,81.13
2022-08-03T04:00:48.866Z,81.23
2022-08-03T04:01:48.691Z,81.23
2022-08-03T04:02:49.726Z,81.13
2022-08-03T04:03:48.640Z,80.93
2022-08-03T04:04:48.663Z,80.73
2022-08-03T04:05:48.620Z,80.93
2022-08-03T04:06:48.642Z,80.99
2022-08-03T04:07:48.632Z,81.03
2022-08-03T04:08:49.457Z,81.03
2022-08-03T04:09:48.552Z,80.90
2022-08-03T04:10:48.612Z,80.79
2022-08-03T04:11:49.584Z,80.79
2022-08-03T04:12:49.854Z,80.79
2022-08-03T04:13:48.543Z,80.99
2022-08-03T04:14:48.493Z,80.99
2022-08-03T04:15:48.506Z,80.99
2022-08-03T04:16:48.485Z,80.99
2022-08-03T04:17:48.491Z,80.90
2022-08-03T04:18:48.495Z,80.90
2022-08-03T04:19:48.429Z,80.99
2022-08-03T04:20:48.481Z,80.99
2022-08-03T04:21:48.398Z,80.99
2022-08-03T04:22:48.383Z,81.20
2022-08-03T04:23:48.409Z,81.10
2022-08-03T04:24:48.353Z,81.10
2022-08-03T04:25:48.510Z,81.10
2022-08-03T04:26:52.481Z,81.10
2022-08-03T04:28:28.321Z,80.99
2022-08-03T04:28:49.307Z,80.99
2022-08-03T04:29:48.796Z,80.90
2022-08-03T04:30:48.366Z,80.99
2022-08-03T04:31:48.336Z,80.99
2022-08-03T04:32:48.257Z,80.96
2022-08-03T04:33:48.290Z,81.05
2022-08-03T04:34:48.250Z,80.96
2022-08-03T04:35:58.658Z,80.85
2022-08-03T04:36:49.227Z,80.76
2022-08-03T04:37:48.211Z,80.76
2022-08-03T04:38:48.311Z,80.65
2022-08-03T04:39:48.181Z,80.65
2022-08-03T04:40:48.175Z,80.45
2022-08-03T04:42:07.594Z,80.25
2022-08-03T04:42:49.143Z,80.25
2022-08-03T04:43:48.153Z,80.25
2022-08-03T04:44:48.124Z,80.21
2022-08-03T04:45:48.166Z,80.11
2022-08-03T04:46:50.514Z,80.01
2022-08-03T04:47:48.065Z,79.91
2022-08-03T04:48:48.045Z,79.91
2022-08-03T04:49:48.024Z,79.81
2022-08-03T04:50:48.414Z,79.81
2022-08-03T04:51:48.015Z,79.91
2022-08-03T04:52:48.091Z,79.81
2022-08-03T04:53:47.988Z,79.71
2022-08-03T04:54:50.516Z,79.50
2022-08-03T04:55:47.994Z,79.36
2022-08-03T04:56:48.135Z,79.36
2022-08-03T04:57:47.995Z,79.57
2022-08-03T04:58:48.052Z,79.47
2022-08-03T04:59:47.934Z,79.27
2022-08-03T05:00:47.906Z,79.16
2022-08-03T05:01:47.997Z,78.83
2022-08-03T05:02:48.041Z,78.63
2022-08-03T05:03:47.904Z,78.42
2022-08-03T05:04:47.885Z,78.32
2022-08-03T05:05:50.291Z,78.08
2022-08-03T05:06:48.143Z,77.78
2022-08-03T05:07:48.842Z,77.58
2022-08-03T05:08:48.882Z,77.08
2022-08-03T05:09:52.351Z,76.74
2022-08-03T05:10:48.810Z,76.64
2022-08-03T05:11:47.933Z,76.34
2022-08-03T05:12:47.851Z,75.90
2022-08-03T05:13:47.953Z,75.59
2022-08-03T05:14:47.724Z,75.05
2022-08-03T05:15:47.698Z,74.75
2022-08-03T05:16:47.750Z,74.41
2022-08-03T05:17:47.667Z,74.32
2022-08-03T05:18:47.784Z,74.21
2022-08-03T05:19:47.696Z,73.91
2022-08-03T05:20:48.347Z,73.78
2022-08-03T05:21:52.222Z,73.18
2022-08-03T05:22:48.589Z,72.97
2022-08-03T05:23:47.668Z,72.74
2022-08-03T05:24:47.583Z,72.53
2022-08-03T05:25:50.033Z,72.33
2022-08-03T05:26:47.546Z,72.20
2022-08-03T05:27:47.526Z,71.80
2022-08-03T05:28:50.664Z,71.40
2022-08-03T05:29:47.605Z,71.40
2022-08-03T05:30:47.530Z,71.16
2022-08-03T05:31:47.528Z,71.06
2022-08-03T05:32:47.514Z,70.96
2022-08-03T05:33:47.446Z,70.46
2022-08-03T05:34:47.480Z,70.12
2022-08-03T05:35:57.767Z,70.03
2022-08-03T05:36:48.467Z,70.12
2022-08-03T05:37:54.713Z,69.53
2022-08-03T05:38:48.403Z,69.39
2022-08-03T05:39:47.384Z,69.19
2022-08-03T05:40:56.983Z,68.99
2022-08-03T05:41:48.447Z,68.89
2022-08-03T05:42:47.372Z,68.65
2022-08-03T05:43:47.354Z,68.05
2022-08-03T05:44:47.327Z,67.96
2022-08-03T05:45:47.291Z,67.42
2022-08-03T05:46:48.299Z,67.22
2022-08-03T05:47:47.303Z,67.02
2022-08-03T05:48:47.261Z,66.19
2022-08-03T05:49:47.322Z,66.09
2022-08-03T05:50:47.245Z,65.86
2022-08-03T05:51:47.208Z,65.66
2022-08-03T05:52:48.195Z,65.45
2022-08-03T05:53:47.218Z,65.12
2022-08-03T05:54:56.097Z,64.72
2022-08-03T05:55:51.355Z,64.62
2022-08-03T05:56:48.143Z,64.89
2022-08-03T05:57:47.156Z,63.49
2022-08-03T05:58:47.633Z,63.46
2022-08-03T05:59:53.960Z,63.76
2022-08-03T06:00:48.085Z,63.46
2022-08-03T06:01:47.252Z,63.46
2022-08-03T06:02:47.076Z,62.83
2022-08-03T06:03:47.045Z,62.83
2022-08-03T06:04:47.129Z,61.93
2022-08-03T06:05:54.972Z,61.71
2022-08-03T06:06:48.071Z,61.51
2022-08-03T06:07:47.015Z,60.97
2022-08-03T06:08:47.064Z,60.68
2022-08-03T06:10:37.319Z,60.08
2022-08-03T06:10:48.049Z,59.85
2022-08-03T06:11:46.961Z,59.05
2022-08-03T06:12:46.932Z,59.25
2022-08-03T06:13:46.943Z,59.35
2022-08-03T06:14:46.957Z,59.52
2022-08-03T06:15:47.000Z,58.92
2022-08-03T06:16:46.953Z,58.12
2022-08-03T06:17:46.934Z,58.20
2022-08-03T06:18:46.851Z,58.50
2022-08-03T06:19:46.867Z,58.20
2022-08-03T06:20:47.103Z,57.60
2022-08-03T06:21:46.842Z,57.97
2022-08-03T06:22:50.672Z,58.07
2022-08-03T06:23:53.906Z,57.77
2022-08-03T06:24:53.570Z,56.68
2022-08-03T06:25:47.751Z,56.65
2022-08-03T06:26:46.744Z,56.75
2022-08-03T06:27:46.734Z,57.05
2022-08-03T06:28:52.711Z,56.55
2022-08-03T06:29:47.704Z,56.42
2022-08-03T06:30:46.697Z,56.42
2022-08-03T06:31:46.995Z,56.32
2022-08-03T06:32:52.124Z,56.52
2022-08-03T06:34:31.186Z,55.93
2022-08-03T06:34:47.698Z,55.30
2022-08-03T06:35:46.739Z,55.30
2022-08-03T06:36:46.921Z,55.70
2022-08-03T06:37:46.658Z,55.50
2022-08-03T06:38:46.612Z,55.60
2022-08-03T06:39:46.655Z,55.38
2022-08-03T06:40:46.568Z,55.08
2022-08-03T06:41:46.574Z,54.58
2022-08-03T06:42:47.284Z,54.16
2022-08-03T06:44:03.999Z,53.96
2022-08-03T06:44:47.573Z,53.76
2022-08-03T06:45:46.651Z,53.63
2022-08-03T06:46:46.686Z,53.73
2022-08-03T06:47:46.583Z,53.14
2022-08-03T06:48:46.506Z,53.51
2022-08-03T06:50:12.493Z,52.42
2022-08-03T06:50:47.435Z,52.91
2022-08-03T06:52:05.970Z,52.29
2022-08-03T06:52:47.910Z,52.69
2022-08-03T06:53:46.607Z,52.00
2022-08-03T06:54:46.454Z,51.87
2022-08-03T06:55:48.127Z,51.87
2022-08-03T06:56:47.356Z,51.54
2022-08-03T06:57:46.387Z,51.25
2022-08-03T06:58:46.344Z,51.03
2022-08-03T07:00:11.051Z,50.73
2022-08-03T07:00:47.353Z,50.63
2022-08-03T07:01:46.451Z,50.83
2022-08-03T07:02:46.350Z,50.90
2022-08-03T07:03:52.319Z,50.41
2022-08-03T07:04:47.313Z,50.51
2022-08-03T07:05:46.876Z,50.51
2022-08-03T07:06:46.225Z,50.60
2022-08-03T07:07:46.228Z,50.11
2022-08-03T07:08:49.469Z,50.21
2022-08-03T07:09:57.578Z,50.71
2022-08-03T07:10:47.276Z,50.53
2022-08-03T07:11:46.172Z,50.83
2022-08-03T07:12:56.097Z,50.93
2022-08-03T07:13:47.132Z,50.83
2022-08-03T07:14:46.116Z,50.43
2022-08-03T07:15:55.430Z,50.41
2022-08-03T07:16:47.124Z,50.48
2022-08-03T07:17:46.104Z,49.99
2022-08-03T07:18:46.084Z,50.09
2022-08-03T07:19:46.068Z,49.66
2022-08-03T07:20:46.117Z,49.47
2022-08-03T07:21:46.045Z,49.05
2022-08-03T07:22:47.493Z,48.75
2022-08-03T07:23:47.025Z,48.95
2022-08-03T07:24:46.010Z,48.55
2022-08-03T07:25:46.064Z,48.83
2022-08-03T07:26:46.001Z,48.73
2022-08-03T07:27:50.022Z,48.11
2022-08-03T07:28:46.937Z,48.31
2022-08-03T07:29:45.970Z,48.02
2022-08-03T07:30:45.913Z,48.41
2022-08-03T07:31:45.908Z,48.21
2022-08-03T07:32:50.387Z,48.51
2022-08-03T07:33:46.873Z,48.80
2022-08-03T07:34:45.861Z,48.58
2022-08-03T07:35:45.992Z,47.89
2022-08-03T07:36:46.479Z,47.57
2022-08-03T07:37:54.634Z,47.18
2022-08-03T07:38:46.813Z,47.38
2022-08-03T07:39:45.800Z,47.38
2022-08-03T07:40:46.453Z,47.20
2022-08-03T07:41:45.847Z,47.30
2022-08-03T07:42:45.792Z,48.21
2022-08-03T07:43:45.887Z,48.31
2022-08-03T07:44:45.745Z,48.49
2022-08-03T07:45:45.760Z,47.89
2022-08-03T07:46:45.726Z,47.87
2022-08-03T07:47:46.237Z,47.25
2022-08-03T07:48:48.189Z,47.16
2022-08-03T07:49:45.656Z,46.74
2022-08-03T07:50:45.738Z,46.03
2022-08-03T07:51:45.639Z,45.93
2022-08-03T07:52:45.656Z,46.03
2022-08-03T07:53:47.820Z,45.31
2022-08-03T07:54:47.240Z,45.51
2022-08-03T07:55:45.875Z,45.34
2022-08-03T07:56:45.567Z,45.95
2022-08-03T07:57:45.547Z,47.03
2022-08-03T07:58:47.033Z,46.26
2022-08-03T07:59:56.735Z,46.64
2022-08-03T08:00:46.727Z,45.95
2022-08-03T08:01:45.738Z,45.93
2022-08-03T08:02:45.553Z,45.93
2022-08-03T08:03:53.433Z,45.41
2022-08-03T08:04:47.173Z,45.41
2022-08-03T08:05:45.444Z,45.12
2022-08-03T08:06:45.465Z,45.81
2022-08-03T08:07:51.444Z,45.73
2022-08-03T08:08:46.493Z,45.43
2022-08-03T08:09:45.393Z,45.56
2022-08-03T08:10:58.288Z,46.15
2022-08-03T08:11:46.364Z,46.34
2022-08-03T08:12:45.358Z,46.74
2022-08-03T08:13:46.326Z,46.66
2022-08-03T08:14:45.624Z,46.44
2022-08-03T08:15:45.348Z,46.54
2022-08-03T08:16:45.349Z,46.54
2022-08-03T08:17:45.309Z,46.44
2022-08-03T08:18:45.729Z,46.81
2022-08-03T08:19:51.367Z,46.03
2022-08-03T08:20:46.785Z,45.61
2022-08-03T08:21:53.077Z,45.61
2022-08-03T08:22:46.257Z,45.02
2022-08-03T08:23:50.551Z,45.12
2022-08-03T08:24:47.309Z,45.14
2022-08-03T08:25:46.193Z,45.93
2022-08-03T08:26:45.234Z,45.31
2022-08-03T08:28:30.619Z,45.09
2022-08-03T08:28:46.190Z,44.92
2022-08-03T08:29:47.597Z,45.12
2022-08-03T08:30:46.163Z,45.31
2022-08-03T08:31:45.110Z,45.31
2022-08-03T08:32:45.233Z,45.63
2022-08-03T08:34:46.095Z,45.83
2022-08-03T08:35:45.093Z,46.03
2022-08-03T08:36:45.087Z,46.03
2022-08-03T08:37:50.919Z,45.83
2022-08-03T08:38:46.046Z,45.90
2022-08-03T08:39:45.003Z,45.71
2022-08-03T08:40:45.020Z,45.90
2022-08-03T08:41:45.840Z,45.49
2022-08-03T08:42:58.051Z,45.00
2022-08-03T08:43:45.958Z,44.98
2022-08-03T08:44:44.948Z,44.78
2022-08-03T08:45:44.950Z,45.07
2022-08-03T08:46:45.071Z,44.98
2022-08-03T08:47:51.243Z,45.07
2022-08-03T08:48:45.887Z,45.17
2022-08-03T08:50:03.875Z,45.27
2022-08-03T08:50:45.872Z,45.07
2022-08-03T08:51:59.318Z,45.17
2022-08-03T08:52:45.992Z,45.17
2022-08-03T08:53:44.892Z,44.88
2022-08-03T08:54:44.817Z,45.07
2022-08-03T08:55:58.921Z,45.17
2022-08-03T08:56:45.854Z,45.19
2022-08-03T08:57:44.866Z,45.56
2022-08-03T08:58:44.866Z,45.17
2022-08-03T08:59:48.412Z,45.27
2022-08-03T09:00:44.771Z,45.17
2022-08-03T09:01:44.786Z,45.17
2022-08-03T09:02:44.734Z,45.76
2022-08-03T09:03:44.695Z,45.47
2022-08-03T09:04:44.920Z,45.27
2022-08-03T09:05:55.825Z,45.37
2022-08-03T09:06:58.841Z,45.35
2022-08-03T09:07:45.691Z,44.95
2022-08-03T09:08:44.669Z,45.56
2022-08-03T09:10:10.162Z,45.56
2022-08-03T09:10:45.672Z,45.56
2022-08-03T09:12:01.051Z,45.64
2022-08-03T09:12:45.620Z,45.15
2022-08-03T09:13:44.567Z,45.45
2022-08-03T09:15:00.755Z,44.85
2022-08-03T09:16:00.770Z,45.62
2022-08-03T09:16:45.552Z,44.83
2022-08-03T09:17:50.369Z,45.03
2022-08-03T09:18:45.499Z,44.73
2022-08-03T09:20:03.535Z,44.85
2022-08-03T09:20:45.471Z,45.07
2022-08-03T09:21:44.535Z,45.54
2022-08-03T09:22:44.493Z,45.15
2022-08-03T09:24:00.578Z,44.85
2022-08-03T09:24:45.586Z,44.73
2022-08-03T09:25:44.413Z,44.46
2022-08-03T09:26:44.520Z,45.05
2022-08-03T09:27:44.398Z,45.37
2022-08-03T09:28:58.005Z,45.35
2022-08-03T09:29:45.697Z,45.05
2022-08-03T09:30:44.396Z,44.66
2022-08-03T09:31:44.992Z,44.76
2022-08-03T09:32:44.369Z,44.85
2022-08-03T09:33:44.338Z,44.76
2022-08-03T09:34:44.299Z,44.98
2022-08-03T09:35:53.622Z,45.37
2022-08-03T09:36:45.302Z,45.17
2022-08-03T09:38:11.868Z,45.37
2022-08-03T09:38:45.244Z,45.07
2022-08-03T09:39:44.279Z,44.95
2022-08-03T09:40:44.243Z,44.56
2022-08-03T09:41:44.208Z,44.66
2022-08-03T09:42:44.191Z,44.56
2022-08-03T09:43:44.207Z,44.56
2022-08-03T09:44:44.162Z,44.85
2022-08-03T09:45:44.142Z,44.36
2022-08-03T09:46:44.684Z,44.95
2022-08-03T09:47:45.318Z,44.34
2022-08-03T09:48:44.152Z,44.05
2022-08-03T09:49:44.212Z,44.05
2022-08-03T09:50:56.976Z,43.85
2022-08-03T09:52:31.467Z,44.44
2022-08-03T09:52:50.166Z,44.02
2022-08-03T09:53:58.885Z,43.95
2022-08-03T09:54:45.019Z,44.15
2022-08-03T09:56:34.961Z,43.95
2022-08-03T09:56:45.080Z,43.93
2022-08-03T09:57:43.988Z,43.63
2022-08-03T09:58:43.978Z,43.80
2022-08-03T09:59:43.981Z,43.49
2022-08-03T10:00:44.007Z,43.29
2022-08-03T10:01:44.011Z,43.12
2022-08-03T10:02:43.967Z,43.63
2022-08-03T10:04:03.194Z,43.43
2022-08-03T10:04:44.940Z,43.43
2022-08-03T10:05:43.943Z,44.54
2022-08-03T10:06:45.861Z,44.54
2022-08-03T10:07:45.906Z,44.02
2022-08-03T10:08:43.875Z,43.43
2022-08-03T10:09:43.868Z,43.63
2022-08-03T10:10:44.031Z,44.02
2022-08-03T10:11:43.835Z,43.65
2022-08-03T10:12:43.833Z,43.95
2022-08-03T10:13:43.794Z,44.22
2022-08-03T10:14:43.808Z,43.80
2022-08-03T10:16:21.712Z,43.32
2022-08-03T10:16:44.754Z,42.90
2022-08-03T10:17:43.727Z,42.71
2022-08-03T10:18:43.795Z,42.61
2022-08-03T10:19:43.700Z,42.61
2022-08-03T10:20:43.779Z,42.29
2022-08-03T10:21:43.722Z,42.21
2022-08-03T10:22:43.738Z,42.32
2022-08-03T10:23:43.701Z,43.24
2022-08-03T10:24:43.692Z,43.14
2022-08-03T10:25:43.619Z,43.43
2022-08-03T10:26:49.714Z,43.53
2022-08-03T10:27:44.630Z,43.61
2022-08-03T10:28:45.542Z,43.00
2022-08-03T10:29:43.589Z,42.61
2022-08-03T10:30:43.560Z,42.39
2022-08-03T10:31:54.553Z,42.08
2022-08-03T10:32:44.592Z,42.00
2022-08-03T10:33:50.158Z,42.19
2022-08-03T10:34:44.982Z,42.19
2022-08-03T10:35:43.541Z,42.19
2022-08-03T10:36:43.481Z,42.88
2022-08-03T10:37:43.504Z,42.39
2022-08-03T10:38:44.474Z,42.79
2022-08-03T10:39:43.449Z,42.39
2022-08-03T10:40:53.599Z,42.39
2022-08-03T10:41:44.487Z,41.29
2022-08-03T10:42:43.441Z,41.58
2022-08-03T10:43:43.474Z,41.39
2022-08-03T10:44:43.471Z,41.39
2022-08-03T10:45:43.382Z,41.19
2022-08-03T10:46:45.166Z,41.29
2022-08-03T10:47:43.375Z,40.61
2022-08-03T10:48:43.663Z,40.41
2022-08-03T10:49:43.433Z,40.11
2022-08-03T10:50:43.333Z,40.82
2022-08-03T10:51:43.329Z,41.21
2022-08-03T10:52:45.377Z,41.11
2022-08-03T10:53:52.847Z,40.90
2022-08-03T10:54:44.254Z,40.41
2022-08-03T10:55:43.282Z,40.51
2022-08-03T10:56:49.667Z,40.70
2022-08-03T10:57:44.299Z,40.41
2022-08-03T10:58:53.291Z,40.72
2022-08-03T10:59:44.203Z,40.82
2022-08-03T11:00:43.193Z,41.00
2022-08-03T11:01:58.483Z,40.41
2022-08-03T11:02:44.177Z,40.39
2022-08-03T11:03:43.166Z,40.48
2022-08-03T11:04:43.235Z,40.00
2022-08-03T11:05:43.149Z,40.19
2022-08-03T11:06:43.156Z,39.90
2022-08-03T11:07:44.560Z,39.39
2022-08-03T11:08:44.882Z,39.70
2022-08-03T11:09:43.199Z,39.49
2022-08-03T11:10:43.041Z,39.78
2022-08-03T11:11:43.156Z,39.09
2022-08-03T11:12:43.080Z,39.00
2022-08-03T11:13:43.053Z,39.31
2022-08-03T11:14:42.987Z,39.31
2022-08-03T11:15:43.133Z,39.31
2022-08-03T11:16:42.973Z,39.61
2022-08-03T11:17:46.378Z,39.70
2022-08-03T11:18:44.219Z,39.41
2022-08-03T11:19:57.018Z,39.59
2022-08-03T11:20:43.913Z,39.09
2022-08-03T11:21:42.903Z,39.19
2022-08-03T11:22:42.955Z,39.29
2022-08-03T11:24:04.387Z,39.39
2022-08-03T11:24:43.903Z,39.59
2022-08-03T11:25:54.831Z,38.88
2022-08-03T11:26:44.085Z,39.15
2022-08-03T11:27:42.865Z,38.18
2022-08-03T11:28:42.886Z,38.37
2022-08-03T11:29:43.187Z,38.86
2022-08-03T11:30:42.879Z,38.96
2022-08-03T11:31:51.485Z,38.88
2022-08-03T11:32:46.638Z,39.61
2022-08-03T11:33:44.290Z,40.08
2022-08-03T11:34:42.926Z,39.78
2022-08-03T11:35:42.783Z,40.08
2022-08-03T11:36:42.718Z,39.69
2022-08-03T11:37:43.651Z,40.29
2022-08-03T11:38:43.694Z,40.68
2022-08-03T11:39:42.808Z,40.68
2022-08-03T11:40:42.772Z,40.19
2022-08-03T11:41:45.440Z,40.39
2022-08-03T11:42:42.713Z,40.68
2022-08-03T11:43:42.623Z,40.61
2022-08-03T11:44:42.602Z,40.51
2022-08-03T11:45:43.628Z,40.51
2022-08-03T11:46:42.574Z,40.01
2022-08-03T11:47:50.690Z,39.62
2022-08-03T11:48:43.908Z,39.61
2022-08-03T11:49:43.651Z,39.49
2022-08-03T11:50:42.602Z,39.19
2022-08-03T11:51:42.584Z,39.19
2022-08-03T11:52:42.534Z,39.09
2022-08-03T11:53:42.668Z,39.19
2022-08-03T11:54:42.478Z,39.00
2022-08-03T11:55:42.515Z,39.19
2022-08-03T11:56:42.519Z,39.19
2022-08-03T11:59:02.706Z,38.59
2022-08-03T11:59:12.868Z,38.68
2022-08-03T11:59:43.492Z,38.98
2022-08-03T12:00:42.412Z,38.88
2022-08-03T12:01:42.465Z,38.67
2022-08-03T12:02:42.419Z,38.47
2022-08-03T12:03:42.505Z,38.57
2022-08-03T12:04:42.354Z,38.37
2022-08-03T12:05:42.384Z,37.96
2022-08-03T12:06:47.253Z,37.96
2022-08-03T12:08:04.372Z,38.86
2022-08-03T12:08:43.350Z,38.86
2022-08-03T12:09:42.302Z,38.06
2022-08-03T12:10:42.394Z,37.96
2022-08-03T12:11:56.144Z,38.34
2022-08-03T12:12:46.421Z,37.63
2022-08-03T12:14:27.080Z,36.83
2022-08-03T12:14:49.546Z,36.75
2022-08-03T12:15:43.264Z,36.87
2022-08-03T12:16:42.257Z,37.18
2022-08-03T12:17:42.214Z,37.87
2022-08-03T12:18:42.179Z,38.16
2022-08-03T12:19:42.198Z,37.65
2022-08-03T12:20:42.173Z,37.65
2022-08-03T12:21:42.198Z,37.45
2022-08-03T12:22:43.180Z,37.35
2022-08-03T12:23:42.215Z,37.87
2022-08-03T12:24:42.111Z,38.26
2022-08-03T12:25:42.084Z,38.67
2022-08-03T12:26:42.075Z,38.75
2022-08-03T12:27:42.080Z,38.55
2022-08-03T12:28:44.212Z,38.35
2022-08-03T12:29:42.098Z,38.45
2022-08-03T12:30:43.275Z,38.45
2022-08-03T12:31:42.044Z,39.06
2022-08-03T12:32:42.014Z,39.35
2022-08-03T12:33:41.987Z,39.54
2022-08-03T12:34:46.945Z,39.53
2022-08-03T12:35:52.596Z,39.14
2022-08-03T12:36:42.981Z,38.63
2022-08-03T12:37:42.000Z,38.43
2022-08-03T12:38:41.934Z,38.55
2022-08-03T12:40:03.007Z,38.35
2022-08-03T12:40:42.915Z,38.34
2022-08-03T12:41:41.891Z,38.53
2022-08-03T12:42:41.952Z,38.34
2022-08-03T12:43:41.864Z,38.22
2022-08-03T12:44:41.842Z,37.71
2022-08-03T12:45:41.871Z,37.41
2022-08-03T12:46:47.512Z,37.21
2022-08-03T12:47:42.832Z,36.91
2022-08-03T12:48:41.812Z,36.90
2022-08-03T12:49:41.884Z,36.80
2022-08-03T12:50:42.122Z,36.51
2022-08-03T12:51:41.797Z,37.34
2022-08-03T12:52:41.811Z,37.75
2022-08-03T12:53:41.748Z,38.16